地図

経路データ

SID SEASON NUMBER BASIN SUBBASIN NAME ISO_TIME NATURE LAT LON WMO_WIND WMO_PRES WMO_AGENCY TRACK_TYPE DIST2LAND LANDFALL IFLAG USA_AGENCY USA_ATCF_ID USA_LAT USA_LON USA_RECORD USA_STATUS USA_WIND USA_PRES USA_SSHS USA_R34_NE USA_R34_SE USA_R34_SW USA_R34_NW USA_R50_NE USA_R50_SE USA_R50_SW USA_R50_NW USA_R64_NE USA_R64_SE USA_R64_SW USA_R64_NW USA_POCI USA_ROCI USA_RMW USA_EYE TOKYO_LAT TOKYO_LON TOKYO_GRADE TOKYO_WIND TOKYO_PRES TOKYO_R50_DIR TOKYO_R50_LONG TOKYO_R50_SHORT TOKYO_R30_DIR TOKYO_R30_LONG TOKYO_R30_SHORT TOKYO_LAND CMA_LAT CMA_LON CMA_CAT CMA_WIND CMA_PRES HKO_LAT HKO_LON HKO_CAT HKO_WIND HKO_PRES NEWDELHI_LAT NEWDELHI_LON NEWDELHI_GRADE NEWDELHI_WIND NEWDELHI_PRES NEWDELHI_CI NEWDELHI_DP NEWDELHI_POCI REUNION_LAT REUNION_LON REUNION_TYPE REUNION_WIND REUNION_PRES REUNION_TNUM REUNION_CI REUNION_RMW REUNION_R34_NE REUNION_R34_SE REUNION_R34_SW REUNION_R34_NW REUNION_R50_NE REUNION_R50_SE REUNION_R50_SW REUNION_R50_NW REUNION_R64_NE REUNION_R64_SE REUNION_R64_SW REUNION_R64_NW BOM_LAT BOM_LON BOM_TYPE BOM_WIND BOM_PRES BOM_TNUM BOM_CI BOM_RMW BOM_R34_NE BOM_R34_SE BOM_R34_SW BOM_R34_NW BOM_R50_NE BOM_R50_SE BOM_R50_SW BOM_R50_NW BOM_R64_NE BOM_R64_SE BOM_R64_SW BOM_R64_NW BOM_ROCI BOM_POCI BOM_EYE BOM_POS_METHOD BOM_PRES_METHOD NADI_LAT NADI_LON NADI_CAT NADI_WIND NADI_PRES WELLINGTON_LAT WELLINGTON_LON WELLINGTON_WIND WELLINGTON_PRES DS824_LAT DS824_LON DS824_STAGE DS824_WIND DS824_PRES TD9636_LAT TD9636_LON TD9636_STAGE TD9636_WIND TD9636_PRES TD9635_LAT TD9635_LON TD9635_WIND TD9635_PRES TD9635_ROCI NEUMANN_LAT NEUMANN_LON NEUMANN_CLASS NEUMANN_WIND NEUMANN_PRES MLC_LAT MLC_LON MLC_CLASS MLC_WIND MLC_PRES USA_GUST BOM_GUST BOM_GUST_PER REUNION_GUST REUNION_GUST_PER USA_SEAHGT USA_SEARAD_NE USA_SEARAD_SE USA_SEARAD_SW USA_SEARAD_NW STORM_SPEED STORM_DIR
1901069S11061 1901 13 SI MM NOT_NAMED 1901-03-10 00:00:00 TS -10.5000 61.0000 main 1131 1103 _________O____ -1 -10.5000 61.0000 TC 6 237
1901069S11061 1901 13 SI MM NOT_NAMED 1901-03-10 03:00:00 TS -10.6601 60.7476 main 1100 1083 _________P____ -1 -10.6601 60.7476 TC 6 239
1901069S11061 1901 13 SI MM NOT_NAMED 1901-03-10 06:00:00 TS -10.8000 60.5000 main 1083 1066 _________O____ -1 -10.8000 60.5000 TC 5 243
1901069S11061 1901 13 SI MM NOT_NAMED 1901-03-10 09:00:00 TS -10.9075 60.2575 main 1066 1047 _________P____ -1 -10.9075 60.2575 TC 5 248
1901069S11061 1901 13 SI MM NOT_NAMED 1901-03-10 12:00:00 TS -11.0000 60.0000 main 1047 1029 _________O____ -1 -11.0000 60.0000 TC 6 250
1901069S11061 1901 13 SI MM NOT_NAMED 1901-03-10 15:00:00 TS -11.1000 59.7075 main 1029 1012 _________P____ -1 -11.1000 59.7075 TC 6 251
1901069S11061 1901 13 SI MM NOT_NAMED 1901-03-10 18:00:00 TS -11.2000 59.4000 main 1012 996 _________O____ -1 -11.2000 59.4000 TC 6 252
1901069S11061 1901 13 SI MM NOT_NAMED 1901-03-10 21:00:00 TS -11.2924 59.1074 main 996 980 _________P____ -1 -11.2924 59.1074 TC 6 251
1901069S11061 1901 13 SI MM NOT_NAMED 1901-03-11 00:00:00 TS -11.4000 58.8000 main 980 947 _________O____ -1 -11.4000 58.8000 TC 7 249
1901069S11061 1901 13 SI MM NOT_NAMED 1901-03-11 03:00:00 TS -11.5425 58.4500 main 947 899 _________P____ -1 -11.5425 58.4500 TC 8 246
1901069S11061 1901 13 SI MM NOT_NAMED 1901-03-11 06:00:00 TS -11.7000 58.1000 main 899 864 _________O____ -1 -11.7000 58.1000 TC 7 244
1901069S11061 1901 13 SI MM NOT_NAMED 1901-03-11 09:00:00 TS -11.8499 57.7999 main 864 827 _________P____ -1 -11.8499 57.7999 TC 7 243
1901069S11061 1901 13 SI MM NOT_NAMED 1901-03-11 12:00:00 TS -12.0000 57.5000 main 827 793 _________O____ -1 -12.0000 57.5000 TC 7 244
1901069S11061 1901 13 SI MM NOT_NAMED 1901-03-11 15:00:00 TS -12.1575 57.1575 main 790 745 _________P____ -1 -12.1575 57.1575 TC 7 246
1901069S11061 1901 13 SI MM NOT_NAMED 1901-03-11 18:00:00 TS -12.3000 56.8000 main 745 711 _________O____ -1 -12.3000 56.8000 TC 7 251
1901069S11061 1901 13 SI MM NOT_NAMED 1901-03-11 21:00:00 TS -12.3924 56.4574 main 711 666 _________P____ -1 -12.3924 56.4574 TC 7 254
1901069S11061 1901 13 SI MM NOT_NAMED 1901-03-12 00:00:00 TS -12.5000 56.1000 main 666 618 _________O____ -1 -12.5000 56.1000 TC 8 248
1901069S11061 1901 13 SI MM NOT_NAMED 1901-03-12 03:00:00 TS -12.6850 55.7075 main 618 571 _________P____ -1 -12.6850 55.7075 TC 9 243
1901069S11061 1901 13 SI MM NOT_NAMED 1901-03-12 06:00:00 TS -12.9000 55.3000 main 571 525 _________O____ -1 -12.9000 55.3000 TC 9 242
1901069S11061 1901 13 SI MM NOT_NAMED 1901-03-12 09:00:00 TS -13.0999 54.9074 main 525 479 _________P____ -1 -13.0999 54.9074 TC 9 243
1901069S11061 1901 13 SI MM NOT_NAMED 1901-03-12 12:00:00 TS -13.3000 54.5000 main 479 432 _________O____ -1 -13.3000 54.5000 TC 9 244
1901069S11061 1901 13 SI MM NOT_NAMED 1901-03-12 15:00:00 TS -13.5075 54.0575 main 432 373 _________P____ -1 -13.5075 54.0575 TC 10 245
1901069S11061 1901 13 SI MM NOT_NAMED 1901-03-12 18:00:00 TS -13.7000 53.6000 main 373 315 _________O____ -1 -13.7000 53.6000 TC 10 249
1901069S11061 1901 13 SI MM NOT_NAMED 1901-03-12 21:00:00 TS -13.8651 53.1200 main 315 272 _________P____ -1 -13.8651 53.1200 TC 9 251
1901069S11061 1901 13 SI MM NOT_NAMED 1901-03-13 00:00:00 TS -14.0000 52.7000 main 272 238 _________O____ -1 -14.0000 52.7000 TC 7 250
1901069S11061 1901 13 SI MM NOT_NAMED 1901-03-13 03:00:00 TS -14.1148 52.4274 main 238 214 _________P____ -1 -14.1148 52.4274 TC 5 248
1901069S11061 1901 13 SI MM NOT_NAMED 1901-03-13 06:00:00 TS -14.2000 52.2000 main 214 187 _________O____ -1 -14.2000 52.2000 TC 5 255
1901069S11061 1901 13 SI MM NOT_NAMED 1901-03-13 09:00:00 TS -14.2499 51.9224 main 187 154 _________P____ -1 -14.2499 51.9224 TC 6 260
1901069S11061 1901 13 SI MM NOT_NAMED 1901-03-13 12:00:00 TS -14.3000 51.6000 main 154 110 _________O____ -1 -14.3000 51.6000 TC 7 259
1901069S11061 1901 13 SI MM NOT_NAMED 1901-03-13 15:00:00 TS -14.3850 51.2075 main 110 65 _________P____ -1 -14.3850 51.2075 TC 8 256
1901069S11061 1901 13 SI MM NOT_NAMED 1901-03-13 18:00:00 TS -14.5000 50.8000 main 65 32 _________O____ -1 -14.5000 50.8000 TC 8 251
1901069S11061 1901 13 SI MM NOT_NAMED 1901-03-13 21:00:00 TS -14.6348 50.4574 main 32 0 _________P____ -1 -14.6348 50.4574 TC 7 246
1901069S11061 1901 13 SI MM NOT_NAMED 1901-03-14 00:00:00 TS -14.8000 50.1000 main 0 0 _________O____ -1 -14.8000 50.1000 TC 8 245
1901069S11061 1901 13 SI MM NOT_NAMED 1901-03-14 03:00:00 TS -14.9925 49.6650 main 0 0 _________P____ -1 -14.9925 49.6650 TC 10 245
1901069S11061 1901 13 SI MM NOT_NAMED 1901-03-14 06:00:00 TS -15.2000 49.2000 main 0 0 _________O____ -1 -15.2000 49.2000 TC 10 245
1901069S11061 1901 13 SI MM NOT_NAMED 1901-03-14 09:00:00 TS -15.3999 48.7574 main 0 0 _________P____ -1 -15.3999 48.7574 TC 10 245
1901069S11061 1901 13 SI MM NOT_NAMED 1901-03-14 12:00:00 TS -15.6000 48.3000 main 0 0 _________O____ -1 -15.6000 48.3000 TC 10 246
1901069S11061 1901 13 SI MM NOT_NAMED 1901-03-14 15:00:00 TS -15.8074 47.8075 main 0 0 _________P____ -1 -15.8074 47.8075 TC 10 247
1901069S11061 1901 13 SI MM NOT_NAMED 1901-03-14 18:00:00 TS -16.0000 47.3000 main 0 0 _________O____ -1 -16.0000 47.3000 TC 10 250
1901069S11061 1901 13 SI MM NOT_NAMED 1901-03-14 21:00:00 TS -16.1602 46.7976 main 0 0 _________P____ -1 -16.1602 46.7976 TC 10 253
1901069S11061 1901 13 SI MM NOT_NAMED 1901-03-15 00:00:00 TS -16.3000 46.3000 main 0 _________O____ -1 -16.3000 46.3000 TC 10 254

IBTrACS Databaseについて

本データベースは、米国NOAAが公開する1842年以降の世界の熱帯低気圧のベストトラックデータアーカイブInternational Best Track Archive for Climate Stewardship (IBTrACS)を、ウェブで閲覧しやすい形式に変換したものです。

最終更新日:2021-10-19